Alamo, Nevada Weather observations

Data are for observation ending at time listed.
 Day   Time    Ave.   Ave.  Ave.  Vector   Max.   Stn.    Total    Solar   Ave.  
  of    of     Air    Rel.  Wind   Wind    Wind   Baro.  Precip.   Rad.    Soil  
Year   Day     Temp.  Hum.  Speed  Dir.    Gust   Pres.                    Temp. 
2015   (PST)    F      %     mph   deg.    mph     mb.     in.     W/m2     F   
------------------------------------------------------------------------------
 183   18:30   93.7    22    3.4   292      7.1   895.0    0.00      44    96.9
 183   18:40   92.5    23    3.3   294      8.6   895.0    0.00      36    96.4
 183   18:50   92.4    23    4.1   307      9.8   895.1    0.00      26    95.9
 183   19:00   91.7    24    2.5   331      6.8   895.2    0.00      14    95.4
 183   19:10   89.7    27    2.5    25      4.7   895.3    0.00       5    94.9
 183   19:20   88.6    27    3.0    19      5.0   895.4    0.00       4    94.5
 183   19:30   88.1    29    3.2    18      6.8   895.5    0.00       0    94.0
 183   19:40   87.8    30    2.8   350      6.1   895.6    0.00       0    93.6
 183   19:50   87.5    30    3.0   349      6.1   895.9    0.00       0    93.1
 183   20:00   87.1    30    3.1   353      5.9   896.0    0.00       0    92.7
 183   20:10   86.7    31    2.8   348      4.7   896.0    0.00       0    92.3
 183   20:20   86.5    31    1.7   343      3.8   896.1    0.00       0    91.9
 183   20:30   85.3    33    1.3   293      3.1   896.3    0.00       0    91.5
 183   20:40   84.7    34    1.0   314      3.6   896.5    0.00       0    91.2
 183   20:50   84.3    36    0.5     6      2.4   896.7    0.00       0    90.8
 183   21:00   82.7    38    1.6    47      2.7   896.9    0.00       0    90.5
 183   21:10   82.5    40    0.6    42      1.5   896.8    0.00       0    90.2
 183   21:20   82.3    39    0.9    44      2.2   896.9    0.00       0    89.9
 183   21:30   82.5    40    0.8   327      1.8   896.9    0.00       0    89.6
 183   21:40   82.3    40    1.9    11      3.1   897.1    0.00       0    89.4
 183   21:50   81.9    41    0.9    40      2.1   897.0    0.00       0    89.1
 183   22:00   81.5    43    0.3   336      1.7   897.0    0.00       0    88.9
 183   22:10   80.6    45    0.0     0      0.0   896.9    0.00       0    88.6
 183   22:20   80.3    45    0.6    27      1.6   896.6    0.00       0    88.4
 183   22:30   81.1    43    1.7    18      3.1   896.5    0.00       0    88.2
 183   22:40   81.7    42    1.5    22      2.5   897.0    0.00       0    87.9
 183   22:50   81.1    43    1.7     9      2.6   897.1    0.00       0    87.7
 183   23:00   81.0    43    1.4   356      3.4   897.0    0.00       0    87.5
 183   23:10   81.0    43    1.2    16      1.8   897.1    0.00       0    87.2
 183   23:20   80.4    43    1.4     7      2.4   897.1    0.00       0    87.0
 183   23:30   79.9    44    1.8    14      2.7   897.1    0.00       0    86.8
 183   23:40   79.1    46    1.7   354      3.5   897.0    0.00       0    86.6
 183   23:50   78.9    46    1.6   305      2.7   897.0    0.00       0    86.4
 184    0:00   78.8    45    2.0   355      3.4   896.7    0.00       0    86.2
 184    0:10   78.9    45    1.7   345      2.9   896.6    0.00       0    85.9
 184    0:20   78.6    45    1.6    14      2.6   896.4    0.00       0    85.7
 184    0:30   77.7    48    0.7     3      1.6   896.0    0.00       0    85.5
 184    0:40   77.6    48    1.4    18      3.0   896.0    0.00       0    85.3
 184    0:50   76.5    50    1.0    45      2.3   895.9    0.00       0    85.1
 184    1:00   76.1    51    0.1    50      0.9   896.2    0.00       0    84.9
 184    1:10   75.6    52    1.1    61      2.1   896.2    0.00       0    84.7
 184    1:20   75.4    53    0.4   308      1.2   896.2    0.00       0    84.5
 184    1:30   75.5    52    0.8    35      2.0   896.5    0.00       0    84.3
 184    1:40   75.1    53    0.6    16      1.9   896.5    0.00       0    84.1
 184    1:50   74.6    54    1.0   260      3.7   896.4    0.00       0    83.9
 184    2:00   75.3    52    1.6   248      4.5   896.8    0.00       0    83.8
 184    2:10   76.1    50    0.6   227      2.5   896.4    0.00       0    83.6
 184    2:20   75.9    51    0.7    70      2.0   896.3    0.00       0    83.4
 184    2:30   75.1    53    1.6    60      2.6   896.4    0.00       0    83.2
 184    2:40   75.2    52    1.8    58      3.0   896.6    0.00       0    83.1
 184    2:50   75.3    51    1.6    38      2.3   896.7    0.00       0    82.9
 184    3:00   74.8    52    1.0    10      1.9   896.6    0.00       0    82.8
 184    3:10   74.2    55    0.2   300      1.1   896.7    0.00       0    82.6
 184    3:20   73.5    56    0.2   278      0.8   897.2    0.00       0    82.5
 184    3:30   72.8    57    1.0     6      1.5   897.2    0.00       0    82.3
 184    3:40   71.9    60    0.2    66      1.2   897.2    0.00       0    82.2
 184    3:50   71.3    61    1.2    21      2.1   897.1    0.00       0    82.0
 184    4:00   71.2    61    0.8   325      1.7   896.9    0.00       0    81.8
 184    4:10   71.1    62    0.3    22      1.3   896.9    0.00       0    81.6
 184    4:20   70.5    63    0.8   323      1.7   896.9    0.00       0    81.4
 184    4:30   70.4    62    1.0    22      1.8   897.2    0.00       0    81.2
 184    4:40   70.3    63    0.3   320      1.5   897.2    0.00       9    81.1
 184    4:50   70.5    62    1.2   299      2.1   897.0    0.00      13    80.9
 184    5:00   70.6    61    1.9   284      3.3   897.1    0.00      22    80.8
 184    5:10   71.1    60    2.0   285      3.1   897.3    0.00      31    80.7
 184    5:20   72.3    57    1.5   292      3.1   897.5    0.00      49    80.6
 184    5:30   73.9    54    0.5     7      1.5   897.5    0.00     114    80.5
 184    5:40   75.1    53    1.5    51      2.4   897.6    0.00     157    80.5
 184    5:50   74.2    55    1.6    35      2.9   897.5    0.00     110    80.6
 184    6:00   74.4    54    1.5    16      3.3   897.5    0.00     203    80.8
 184    6:10   76.7    50    2.9    10      5.0   897.5    0.00     262    81.0
 184    6:20   77.6    48    3.7    11      6.6   897.5    0.00     312    81.3
 184    6:30   78.1    47    2.9    14      4.7   897.5    0.00     250    81.7
 184    6:40   78.7    46    2.4    12      4.3   897.6    0.00      88    82.1
 184    6:50   79.8    44    2.7     8      5.2   897.6    0.00      83    82.5
 184    7:00   80.8    42    2.5    11      4.8   897.7    0.00     108    83.0
 184    7:10   81.8    41    2.3    18      3.7   897.6    0.00     436    83.7
 184    7:20   81.8    40    1.9    16      3.8   897.6    0.00     316    84.3
 184    7:30   82.5    39    1.3    53      2.4   897.6    0.00     237    84.5
 184    7:40   83.5    36    1.9    27      3.8   897.6    0.00     453    84.4
 184    7:50   84.4    35    1.7    39      3.4   897.5    0.00     109    84.3
 184    8:00   85.5    34    2.2    14      3.8   897.6    0.00      77    84.2
 184    8:10   85.7    33    2.1    20      4.4   897.6    0.00      85    84.0
 184    8:20   87.0    32    2.1     6      4.3   897.6    0.00      98    84.0
 184    8:30   88.1    30    2.3    16      4.9   897.5    0.00     111    83.9
 184    8:40   88.2    30    2.6    12      5.3   897.4    0.00     143    83.9
 184    8:50   89.0    29    2.7     5      5.3   897.3    0.00     132    84.0
 184    9:00   90.2    28    2.1   357      4.9   897.1    0.00     156    84.1
 184    9:10   90.8    27    2.6   338      4.9   897.0    0.00     189    84.3
 184    9:20   91.4    28    1.6   285      3.5   896.9    0.00     168    84.5
 184    9:30   92.2    24    1.6    14      3.7   896.8    0.00     123    84.7
 184    9:40   92.8    24    1.5   356      3.4   896.8    0.00     115    84.9
 184    9:50   93.1    23    1.9    31      4.2   896.9    0.00     148    85.0
 184   10:00   93.6    23    1.0    80      3.7   896.8    0.00     167    85.1
 184   10:10   94.3    22    1.0    90      2.7   896.7    0.00     317    85.1
 184   10:20   94.1    24    1.4   169      2.8   896.6    0.00     435    85.2
 184   10:30   95.0    21    1.7    65      3.9   896.5    0.00     486    85.3
 184   10:40   95.9    21    1.1    83      4.2   896.4    0.00    1027    85.4
 184   10:50   96.4    22    1.5   167      3.2   896.3    0.00    1006    85.6
 184   11:00   96.6    21    1.0   208      3.2   896.2    0.00     987    86.0
 184   11:10   97.0    20    1.9   201      6.9   896.0    0.00    1037    86.8
 184   11:20   98.1    18    1.2   190      4.0   895.5    0.00    1033    87.6
 184   11:30   98.3    19    1.8   207      5.8   895.0    0.00    1051    88.2
 184   11:40   98.9    20    1.4   200      5.1   894.8    0.00    1089    88.7
 184   11:50   98.4    19    1.6   215      4.6   894.6    0.00    1121    89.1
 184   12:00   99.7    18    1.6   248      5.6   894.8    0.00    1128    90.0
 184   12:10  100.8    17    2.7   331      7.4   895.1    0.00    1138    91.6
 184   12:20  101.4    16    2.5    38      7.2   895.0    0.00    1110    93.5
 184   12:30  100.4    15    3.2    55      8.0   894.8    0.00    1155    95.2
 184   12:40  101.3    17    1.9   179      6.8   894.7    0.00    1157    96.6
 184   12:50  101.1    16    2.6   207      6.6   894.6    0.00    1160    97.9
 184   13:00  101.9    14    1.9   171      4.7   894.5    0.00    1152    99.3
 184   13:10  101.9    13    2.5    73      7.2   894.5    0.00    1142    100.6
 184   13:20  102.6    13    2.8     8      7.4   894.4    0.00    1139    101.6
 184   13:30  103.6    12    2.0    98      8.3   894.3    0.00    1158    102.5
 184   13:40  102.6    12    3.3    34      8.7   894.1    0.00     996    103.5
 184   13:50  102.2    13    6.0    50     11.0   893.9    0.00    1099    104.1
 184   14:00  103.0    13    5.9   294     13.1   893.9    0.00    1101    104.4
 184   14:10  102.5    13    5.4   252     13.7   894.0    0.00    1087    104.8
 184   14:20  103.3    13    2.1   256      7.0   893.9    0.00    1057    105.3
 184   14:30  103.7    12    3.8   259     10.6   893.9    0.00    1033    105.9
 184   14:40  103.9    11    2.1   222      6.1   893.7    0.00    1006    106.5
 184   14:50  103.9    12    2.3   270      6.7   893.6    0.00     985    107.1
 184   15:00  104.9    12    1.5   266      6.0   893.5    0.00     964    107.7
 184   15:10  104.8    12    3.4   320      9.7   892.9    0.00     939    108.1
 184   15:20  104.8    11    3.4   334      7.2   891.6    0.00     908    108.6
 184   15:30  104.4    12    2.5   270      6.3   892.0    0.00     639    108.9
 184   15:40  101.9    13    3.2   242      7.7   892.4    0.00     234    109.1
 184   15:50  101.1    12    1.7   273      5.4   892.2    0.00     286    108.5
 184   16:00   99.6    16    1.8   183      7.3   892.3    0.00     170    107.6
 184   16:10   96.3    16    2.7   181      7.4   892.2    0.00     164    106.6
 184   16:20   96.3    16    1.8   160      6.1   892.1    0.00     152    105.5
 184   16:30   96.0    15    5.3   190     24.0   892.0    0.00     165    104.5
 184   16:40   95.9    16    3.4   197     11.2   891.6    0.00     187    103.5
 184   16:50   95.8    15    4.3   195     10.1   891.1    0.00     179    102.6
 184   17:00   95.3    16    5.5   201     14.4   891.2    0.00     188    101.8
 184   17:10   95.8    15    4.0   201      9.5   891.2    0.00     185    101.1
 184   17:20   96.9    14    2.7   202      6.3   891.1    0.00     179    100.5
 184   17:30   96.6    16    2.6   193     10.4   891.1    0.00     182    100.0
 184   17:40   96.2    18    2.5   186      5.8   891.1    0.00     396    99.6
 184   17:50   97.1    18    2.4   189      4.9   891.0    0.00     343    99.2
 184   18:00   97.4    17    1.1   187      3.3   891.0    0.00     278    98.8
 184   18:10   97.5    17    1.3   176      5.0   891.0    0.00     238    98.4
 184   18:20   97.4    16    1.5   175      5.3   891.0    0.00     204    97.9

Return to Alamo, Nevada graphs page.


Western Regional Climate Center,wrcc@dri.edu